createdAt,value
2022-10-18T00:00:56.362Z,14.50
2022-10-18T00:01:58.651Z,14.50
2022-10-18T00:03:00.913Z,14.48
2022-10-18T00:04:03.509Z,14.49
2022-10-18T00:05:06.157Z,14.48
2022-10-18T00:06:11.959Z,14.48
2022-10-18T00:07:14.236Z,14.47
2022-10-18T00:08:17.890Z,14.47
2022-10-18T00:09:20.129Z,14.47
2022-10-18T00:10:25.102Z,14.44
2022-10-18T00:11:27.351Z,14.44
2022-10-18T00:12:29.550Z,14.44
2022-10-18T00:13:32.454Z,14.44
2022-10-18T00:14:34.748Z,14.44
2022-10-18T00:15:36.964Z,14.42
2022-10-18T00:16:39.270Z,14.43
2022-10-18T00:17:41.641Z,14.43
2022-10-18T00:18:44.450Z,14.41
2022-10-18T00:19:46.818Z,14.41
2022-10-18T00:21:03.896Z,14.41
2022-10-18T00:22:06.109Z,14.41
2022-10-18T00:23:08.368Z,14.41
2022-10-18T00:24:10.667Z,14.40
2022-10-18T00:25:13.572Z,14.39
2022-10-18T00:26:21.859Z,14.39
2022-10-18T00:27:24.300Z,14.38
2022-10-18T00:28:26.666Z,14.38
2022-10-18T00:29:28.923Z,14.37
2022-10-18T00:30:31.129Z,14.36
2022-10-18T00:31:36.676Z,14.36
2022-10-18T00:32:42.721Z,14.35
2022-10-18T00:33:46.811Z,14.36
2022-10-18T00:34:49.086Z,14.34
2022-10-18T00:35:51.299Z,14.33
2022-10-18T00:36:53.601Z,14.31
2022-10-18T00:37:55.806Z,14.32
2022-10-18T00:38:58.627Z,14.30
2022-10-18T00:40:00.872Z,14.29
2022-10-18T00:41:04.387Z,14.29
2022-10-18T00:42:06.608Z,14.28
2022-10-18T00:43:15.331Z,14.27
2022-10-18T00:44:17.477Z,14.27
2022-10-18T00:45:23.277Z,14.27
2022-10-18T00:46:27.982Z,14.27
2022-10-18T00:47:31.252Z,14.26
2022-10-18T00:48:33.478Z,14.27
2022-10-18T00:49:43.644Z,14.25
2022-10-18T00:50:47.776Z,14.24
2022-10-18T00:52:16.552Z,14.25
2022-10-18T00:53:21.770Z,14.25
2022-10-18T00:54:25.074Z,14.23
2022-10-18T00:55:28.891Z,14.24
2022-10-18T00:56:33.730Z,14.23
2022-10-18T00:57:36.760Z,14.24
2022-10-18T00:58:41.797Z,14.23
2022-10-18T00:59:45.942Z,14.22
2022-10-18T01:00:48.278Z,14.22
2022-10-18T01:01:50.637Z,14.22
2022-10-18T01:02:52.905Z,14.20
2022-10-18T01:03:56.132Z,14.21
2022-10-18T01:04:58.304Z,14.21
2022-10-18T01:06:00.577Z,14.20
2022-10-18T01:07:47.267Z,14.19
2022-10-18T01:09:09.645Z,14.20
2022-10-18T01:10:20.752Z,14.20
2022-10-18T01:11:25.947Z,14.20
2022-10-18T01:12:40.321Z,14.20
2022-10-18T01:14:00.601Z,14.19
2022-10-18T01:15:26.962Z,14.19
2022-10-18T01:16:53.336Z,14.17
2022-10-18T01:18:10.313Z,14.15
2022-10-18T01:19:36.085Z,14.15
2022-10-18T01:20:50.366Z,14.14
2022-10-18T01:22:34.933Z,14.15
2022-10-18T01:23:52.500Z,14.13
2022-10-18T01:26:46.608Z,14.11
2022-10-18T01:28:12.952Z,14.10
2022-10-18T01:29:28.089Z,14.10
2022-10-18T01:30:33.040Z,14.08
2022-10-18T01:31:42.689Z,14.07
2022-10-18T01:32:51.185Z,14.06
2022-10-18T01:34:05.306Z,14.04
2022-10-18T01:35:14.899Z,14.05
2022-10-18T01:36:29.124Z,14.04
2022-10-18T01:37:34.336Z,14.04
2022-10-18T01:38:38.113Z,14.03
2022-10-18T01:40:00.906Z,14.02
2022-10-18T01:41:05.524Z,14.01
2022-10-18T01:42:10.778Z,14.01
2022-10-18T01:43:18.664Z,14.02
2022-10-18T01:44:26.965Z,14.02
2022-10-18T01:45:29.261Z,14.00
2022-10-18T01:46:33.365Z,14.00
2022-10-18T01:47:36.521Z,13.99
2022-10-18T01:48:39.429Z,14.00
2022-10-18T01:49:41.627Z,13.98
2022-10-18T01:50:43.836Z,13.99
2022-10-18T01:51:46.479Z,13.98
2022-10-18T01:52:50.967Z,13.97
2022-10-18T01:53:53.223Z,13.96
2022-10-18T01:54:56.606Z,13.96
2022-10-18T01:56:05.893Z,13.96
2022-10-18T01:57:20.245Z,13.96
2022-10-18T01:58:31.444Z,13.95
2022-10-18T01:59:44.157Z,13.94
2022-10-18T02:00:51.139Z,13.93
2022-10-18T02:02:26.645Z,13.94
2022-10-18T02:03:30.088Z,13.92
2022-10-18T02:04:52.221Z,13.92
2022-10-18T02:06:15.918Z,13.91
2022-10-18T02:08:22.068Z,13.90
2022-10-18T02:09:36.365Z,13.89
2022-10-18T02:10:46.464Z,13.89
2022-10-18T02:11:53.058Z,13.87
2022-10-18T02:12:57.665Z,13.88
2022-10-18T02:14:08.971Z,13.85
2022-10-18T02:15:14.919Z,13.86
2022-10-18T02:16:21.661Z,13.85
2022-10-18T02:17:29.188Z,13.84
2022-10-18T02:18:42.349Z,13.82
2022-10-18T02:19:50.291Z,13.83
2022-10-18T02:20:53.469Z,13.82
2022-10-18T02:21:58.440Z,13.81
2022-10-18T02:23:01.803Z,13.81
2022-10-18T02:24:06.042Z,13.82
2022-10-18T02:25:13.820Z,13.81
2022-10-18T02:26:16.664Z,13.80
2022-10-18T02:27:18.999Z,13.78
2022-10-18T02:28:22.078Z,13.79
2022-10-18T02:29:25.240Z,13.78
2022-10-18T02:30:43.389Z,13.79
2022-10-18T02:31:49.468Z,13.78
2022-10-18T02:33:04.199Z,13.77
2022-10-18T02:34:27.987Z,13.77
2022-10-18T02:35:35.901Z,13.77
2022-10-18T02:36:48.142Z,13.76
2022-10-18T02:37:52.976Z,13.76
2022-10-18T02:39:02.796Z,13.75
2022-10-18T02:40:09.687Z,13.73
2022-10-18T02:41:12.228Z,13.73
2022-10-18T02:42:15.863Z,13.72
2022-10-18T02:43:18.126Z,13.72
2022-10-18T02:44:20.334Z,13.71
2022-10-18T02:45:27.526Z,13.70
2022-10-18T02:46:29.740Z,13.70
2022-10-18T02:47:32.139Z,13.70
2022-10-18T02:48:35.411Z,13.69
2022-10-18T02:49:37.598Z,13.68
2022-10-18T02:50:42.125Z,13.69
2022-10-18T02:51:44.385Z,13.68
2022-10-18T02:52:46.601Z,13.68
2022-10-18T02:53:48.785Z,13.66
2022-10-18T02:54:51.018Z,13.66
2022-10-18T02:55:53.206Z,13.66
2022-10-18T02:56:55.613Z,13.66
2022-10-18T02:57:57.772Z,13.67
2022-10-18T02:59:00.120Z,13.66
2022-10-18T03:00:10.353Z,13.64
2022-10-18T03:01:12.815Z,13.63
2022-10-18T03:02:15.034Z,13.64
2022-10-18T03:03:17.205Z,13.63
2022-10-18T03:04:19.656Z,13.63
2022-10-18T03:05:21.843Z,13.63
2022-10-18T03:06:24.305Z,13.62
2022-10-18T03:07:27.198Z,13.63
2022-10-18T03:08:30.048Z,13.61
2022-10-18T03:09:32.346Z,13.61
2022-10-18T03:10:34.599Z,13.59
2022-10-18T03:11:36.848Z,13.59
2022-10-18T03:12:39.015Z,13.58
2022-10-18T03:13:41.244Z,13.57
2022-10-18T03:14:43.532Z,13.57
2022-10-18T03:15:46.977Z,13.56
2022-10-18T03:16:49.394Z,13.55
2022-10-18T03:17:52.406Z,13.55
2022-10-18T03:18:54.591Z,13.54
2022-10-18T03:19:56.820Z,13.53
2022-10-18T03:20:59.099Z,13.54
2022-10-18T03:22:01.392Z,13.53
2022-10-18T03:23:03.741Z,13.52
2022-10-18T03:24:06.625Z,13.52
2022-10-18T03:25:09.189Z,13.50
2022-10-18T03:26:11.515Z,13.50
2022-10-18T03:27:13.845Z,13.49
2022-10-18T03:28:16.073Z,13.49
2022-10-18T03:29:18.301Z,13.48
2022-10-18T03:30:20.492Z,13.49
2022-10-18T03:31:22.770Z,13.49
2022-10-18T03:32:25.109Z,13.47
2022-10-18T03:33:27.317Z,13.48
2022-10-18T03:34:29.500Z,13.46
2022-10-18T03:35:31.848Z,13.45
2022-10-18T03:36:34.557Z,13.44
2022-10-18T03:37:37.262Z,13.46
2022-10-18T03:38:39.529Z,13.45
2022-10-18T03:39:41.786Z,13.44
2022-10-18T03:40:43.976Z,13.44
2022-10-18T03:41:46.188Z,13.42
2022-10-18T03:42:48.387Z,13.43
2022-10-18T03:43:50.655Z,13.43
2022-10-18T03:44:52.881Z,13.41
2022-10-18T03:45:55.968Z,13.41
2022-10-18T03:46:58.127Z,13.41
2022-10-18T03:48:00.399Z,13.41
2022-10-18T03:49:02.955Z,13.42
2022-10-18T03:50:05.586Z,13.41
2022-10-18T03:51:07.860Z,13.41
2022-10-18T03:52:10.236Z,13.41
2022-10-18T03:53:12.423Z,13.40
2022-10-18T03:54:14.691Z,13.40
2022-10-18T03:55:16.907Z,13.41
2022-10-18T03:56:19.187Z,13.41
2022-10-18T03:57:21.409Z,13.39
2022-10-18T03:58:24.011Z,13.39
2022-10-18T03:59:26.345Z,13.38
2022-10-18T04:00:28.589Z,13.36
2022-10-18T04:01:31.333Z,13.37
2022-10-18T04:02:33.962Z,13.36
2022-10-18T04:03:36.358Z,13.36
2022-10-18T04:04:38.546Z,13.34
2022-10-18T04:05:40.769Z,13.33
2022-10-18T04:06:43.947Z,13.33
2022-10-18T04:07:46.194Z,13.32
2022-10-18T04:08:48.472Z,13.33
2022-10-18T04:09:50.668Z,13.31
2022-10-18T04:10:55.633Z,13.32
2022-10-18T04:11:58.749Z,13.31
2022-10-18T04:13:00.977Z,13.32
2022-10-18T04:14:03.176Z,13.32
2022-10-18T04:15:05.994Z,13.32
2022-10-18T04:16:08.214Z,13.32
2022-10-18T04:17:10.432Z,13.32
2022-10-18T04:18:12.633Z,13.32
2022-10-18T04:19:14.847Z,13.32
2022-10-18T04:20:17.333Z,13.34
2022-10-18T04:21:19.734Z,13.32
2022-10-18T04:22:21.966Z,13.33
2022-10-18T04:23:24.255Z,13.34
2022-10-18T04:24:26.493Z,13.34
2022-10-18T04:25:29.505Z,13.36
2022-10-18T04:26:32.101Z,13.36
2022-10-18T04:27:34.583Z,13.37
2022-10-18T04:28:40.210Z,13.37
2022-10-18T04:29:42.615Z,13.38
2022-10-18T04:30:52.185Z,13.40
2022-10-18T04:31:54.637Z,13.41
2022-10-18T04:32:56.826Z,13.41
2022-10-18T04:33:59.046Z,13.40
2022-10-18T04:35:02.321Z,13.42
2022-10-18T04:36:04.806Z,13.42
2022-10-18T04:37:07.173Z,13.43
2022-10-18T04:38:09.472Z,13.43
2022-10-18T04:39:11.635Z,13.44
2022-10-18T04:40:13.874Z,13.46
2022-10-18T04:41:16.110Z,13.45
2022-10-18T04:42:18.304Z,13.46
2022-10-18T04:43:20.527Z,13.46
2022-10-18T04:44:22.900Z,13.47
2022-10-18T04:45:25.150Z,13.47
2022-10-18T04:46:27.566Z,13.48
2022-10-18T04:47:29.938Z,13.49
2022-10-18T04:48:32.409Z,13.48
2022-10-18T04:49:34.642Z,13.49
2022-10-18T04:50:36.874Z,13.49
2022-10-18T04:51:49.409Z,13.49
2022-10-18T04:52:53.611Z,13.50
2022-10-18T04:53:57.524Z,13.50
2022-10-18T04:54:59.783Z,13.50
2022-10-18T04:56:02.068Z,13.51
2022-10-18T04:57:04.469Z,13.52
2022-10-18T04:58:06.791Z,13.51
2022-10-18T04:59:08.976Z,13.52
2022-10-18T05:00:12.163Z,13.52
2022-10-18T05:01:15.399Z,13.52
2022-10-18T05:02:17.702Z,13.52
2022-10-18T05:03:20.034Z,13.53
2022-10-18T05:04:22.251Z,13.53
2022-10-18T05:05:27.048Z,13.52
2022-10-18T05:06:35.533Z,13.54
2022-10-18T05:07:37.911Z,13.54
2022-10-18T05:08:40.106Z,13.53
2022-10-18T05:09:42.312Z,13.53
2022-10-18T05:10:44.527Z,13.54
2022-10-18T05:11:47.391Z,13.55
2022-10-18T05:12:49.763Z,13.55
2022-10-18T05:13:52.364Z,13.54
2022-10-18T05:14:56.769Z,13.55
2022-10-18T05:16:00.356Z,13.54
2022-10-18T05:17:02.590Z,13.54
2022-10-18T05:18:04.851Z,13.56
2022-10-18T05:19:07.137Z,13.55
2022-10-18T05:20:09.939Z,13.55
2022-10-18T05:21:12.635Z,13.56
2022-10-18T05:22:14.863Z,13.56
2022-10-18T05:23:17.096Z,13.58
2022-10-18T05:24:21.034Z,13.58
2022-10-18T05:25:25.290Z,13.58
2022-10-18T05:26:27.873Z,13.58
2022-10-18T05:27:30.085Z,13.58
2022-10-18T05:28:41.305Z,13.59
2022-10-18T05:29:43.856Z,13.59
2022-10-18T05:30:46.072Z,13.62
2022-10-18T05:31:49.429Z,13.62
2022-10-18T05:32:52.787Z,13.62
2022-10-18T05:33:55.050Z,13.62
2022-10-18T05:34:57.343Z,13.62
2022-10-18T05:35:59.675Z,13.63
2022-10-18T05:37:01.901Z,13.64
2022-10-18T05:38:06.020Z,13.64
2022-10-18T05:39:08.255Z,13.63
2022-10-18T05:40:11.132Z,13.64
2022-10-18T05:41:13.456Z,13.64
2022-10-18T05:42:15.722Z,13.65
2022-10-18T05:43:18.018Z,13.64
2022-10-18T05:44:20.361Z,13.65
2022-10-18T05:45:23.504Z,13.65
2022-10-18T05:46:25.808Z,13.66
2022-10-18T05:47:28.465Z,13.66
2022-10-18T05:48:31.028Z,13.64
2022-10-18T05:49:33.246Z,13.65
2022-10-18T05:50:38.139Z,13.64
2022-10-18T05:51:42.648Z,13.65
2022-10-18T05:52:44.846Z,13.66
2022-10-18T05:53:47.119Z,13.68
2022-10-18T05:54:49.314Z,13.66
2022-10-18T05:55:51.565Z,13.65
2022-10-18T05:56:54.025Z,13.66
2022-10-18T05:57:56.279Z,13.64
2022-10-18T05:58:58.482Z,13.65
2022-10-18T06:00:00.653Z,13.65
2022-10-18T06:01:05.122Z,13.65
2022-10-18T06:02:08.705Z,13.66
2022-10-18T06:03:10.943Z,13.66
2022-10-18T06:04:13.166Z,13.64
2022-10-18T06:05:15.461Z,13.66
2022-10-18T06:06:17.720Z,13.66
2022-10-18T06:07:20.018Z,13.66
2022-10-18T06:08:22.258Z,13.67
2022-10-18T06:09:24.667Z,13.67
2022-10-18T06:10:26.972Z,13.68
2022-10-18T06:11:30.068Z,13.67
2022-10-18T06:12:32.336Z,13.69
2022-10-18T06:13:34.590Z,13.69
2022-10-18T06:14:37.421Z,13.67
2022-10-18T06:15:39.655Z,13.70
2022-10-18T06:16:41.833Z,13.70
2022-10-18T06:17:44.049Z,13.70
2022-10-18T06:18:51.183Z,13.72
2022-10-18T06:19:53.458Z,13.71
2022-10-18T06:20:58.041Z,13.72
2022-10-18T06:22:00.315Z,13.71
2022-10-18T06:23:02.543Z,13.72
2022-10-18T06:24:05.125Z,13.72
2022-10-18T06:25:07.602Z,13.72
2022-10-18T06:26:11.881Z,13.73
2022-10-18T06:27:14.155Z,13.74
2022-10-18T06:28:16.364Z,13.74
2022-10-18T06:29:18.562Z,13.75
2022-10-18T06:30:20.772Z,13.75
2022-10-18T06:31:25.801Z,13.77
2022-10-18T06:32:28.072Z,13.75
2022-10-18T06:33:35.085Z,13.77
2022-10-18T06:34:37.335Z,13.78
2022-10-18T06:35:39.524Z,13.79
2022-10-18T06:36:41.703Z,13.78
2022-10-18T06:37:43.864Z,13.79
2022-10-18T06:38:46.095Z,13.79
2022-10-18T06:39:48.336Z,13.81
2022-10-18T06:40:50.559Z,13.81
2022-10-18T06:41:55.456Z,13.81
2022-10-18T06:43:00.411Z,13.83
2022-10-18T06:44:13.333Z,13.83
2022-10-18T06:45:18.462Z,13.85
2022-10-18T06:46:20.727Z,13.85
2022-10-18T06:47:23.038Z,13.87
2022-10-18T06:48:25.462Z,13.85
2022-10-18T06:49:30.234Z,13.85
2022-10-18T06:50:32.477Z,13.86
2022-10-18T06:51:34.830Z,13.87
2022-10-18T06:52:37.135Z,13.87
2022-10-18T06:53:44.613Z,13.89
2022-10-18T06:54:55.637Z,13.89
2022-10-18T06:56:16.356Z,13.90
2022-10-18T06:57:20.848Z,13.90
2022-10-18T06:58:25.263Z,13.91
2022-10-18T06:59:30.404Z,13.92
2022-10-18T07:00:33.724Z,13.93
2022-10-18T07:01:36.052Z,13.93
2022-10-18T07:02:41.309Z,13.95
2022-10-18T07:03:44.773Z,13.95
2022-10-18T07:04:46.991Z,13.96
2022-10-18T07:05:50.567Z,13.97
2022-10-18T07:06:56.941Z,13.98
2022-10-18T07:07:59.151Z,14.00
2022-10-18T07:09:03.162Z,13.99
2022-10-18T07:10:06.039Z,14.02
2022-10-18T07:11:10.186Z,14.02
2022-10-18T07:12:12.391Z,14.03
2022-10-18T07:13:31.320Z,14.04
2022-10-18T07:14:34.893Z,14.04
2022-10-18T07:15:38.785Z,14.07
2022-10-18T07:16:41.021Z,14.07
2022-10-18T07:17:47.967Z,14.08
2022-10-18T07:18:51.421Z,14.09
2022-10-18T07:19:53.703Z,14.09
2022-10-18T07:20:56.020Z,14.09
2022-10-18T07:21:58.258Z,14.10
2022-10-18T07:23:00.545Z,14.11
2022-10-18T07:24:02.746Z,14.13
2022-10-18T07:25:06.278Z,14.13
2022-10-18T07:26:17.009Z,14.12
2022-10-18T07:27:19.360Z,14.14
2022-10-18T07:28:21.658Z,14.16
2022-10-18T07:29:23.828Z,14.16
2022-10-18T07:30:26.195Z,14.16
2022-10-18T07:31:29.796Z,14.19
2022-10-18T07:32:32.143Z,14.18
2022-10-18T07:33:35.669Z,14.20
2022-10-18T07:34:37.851Z,14.21
2022-10-18T07:35:40.103Z,14.22
2022-10-18T07:36:42.355Z,14.23
2022-10-18T07:37:44.682Z,14.25
2022-10-18T07:38:46.904Z,14.26
2022-10-18T07:39:49.185Z,14.27
2022-10-18T07:40:57.533Z,14.28
2022-10-18T07:41:59.718Z,14.29
2022-10-18T07:43:04.605Z,14.30
2022-10-18T07:44:07.312Z,14.32
2022-10-18T07:45:10.600Z,14.33
2022-10-18T07:46:13.803Z,14.34
2022-10-18T07:47:16.340Z,14.36
2022-10-18T07:48:18.524Z,14.37
2022-10-18T07:49:20.772Z,14.39
2022-10-18T07:50:23.408Z,14.39
2022-10-18T07:51:26.842Z,14.41
2022-10-18T07:52:29.066Z,14.42
2022-10-18T07:53:31.583Z,14.42
2022-10-18T07:54:33.791Z,14.44
2022-10-18T07:55:36.005Z,14.45
2022-10-18T07:56:38.361Z,14.47
2022-10-18T07:57:40.651Z,14.47
2022-10-18T07:58:44.444Z,14.49
2022-10-18T07:59:48.414Z,14.50
2022-10-18T08:00:50.603Z,14.52
2022-10-18T08:01:52.890Z,14.53
2022-10-18T08:02:58.880Z,14.54
2022-10-18T08:04:07.209Z,14.55
2022-10-18T08:05:10.746Z,14.57
2022-10-18T08:06:16.739Z,14.59
2022-10-18T08:07:18.980Z,14.60
2022-10-18T08:08:23.086Z,14.62
2022-10-18T08:09:25.391Z,14.62
2022-10-18T08:10:27.670Z,14.63
2022-10-18T08:11:29.923Z,14.65
2022-10-18T08:12:35.090Z,14.65
2022-10-18T08:13:37.462Z,14.64
2022-10-18T08:14:39.682Z,14.66
2022-10-18T08:15:42.045Z,14.66
2022-10-18T08:16:44.301Z,14.68
2022-10-18T08:17:46.520Z,14.69
2022-10-18T08:18:49.266Z,14.69
2022-10-18T08:20:04.731Z,14.69
2022-10-18T08:21:15.460Z,14.70
2022-10-18T08:22:17.656Z,14.72
2022-10-18T08:23:20.026Z,14.73
2022-10-18T08:24:22.491Z,14.72
2022-10-18T08:25:24.771Z,14.71
2022-10-18T08:26:27.102Z,14.71
2022-10-18T08:27:29.562Z,14.71
2022-10-18T08:28:32.029Z,14.72
2022-10-18T08:29:34.353Z,14.72
2022-10-18T08:30:36.604Z,14.73
2022-10-18T08:31:38.796Z,14.72
2022-10-18T08:32:40.991Z,14.74
2022-10-18T08:33:43.688Z,14.74
2022-10-18T08:34:45.939Z,14.75
2022-10-18T08:36:01.745Z,14.77
2022-10-18T08:37:04.582Z,14.76
2022-10-18T08:38:16.381Z,14.77
2022-10-18T08:39:20.571Z,14.78
2022-10-18T08:40:23.079Z,14.78
2022-10-18T08:41:33.178Z,14.78
2022-10-18T08:43:17.036Z,14.79
2022-10-18T08:44:28.731Z,14.79
2022-10-18T08:45:42.543Z,14.78
2022-10-18T08:46:48.314Z,14.80
2022-10-18T08:47:52.179Z,14.82
2022-10-18T08:48:56.883Z,14.84
2022-10-18T08:50:16.301Z,14.84
2022-10-18T08:51:42.547Z,14.85
2022-10-18T08:53:03.260Z,14.86
2022-10-18T08:54:14.618Z,14.87
2022-10-18T08:55:39.931Z,14.88
2022-10-18T08:56:59.202Z,14.90
2022-10-18T08:58:01.503Z,14.91
2022-10-18T08:59:04.561Z,14.90
2022-10-18T09:00:22.177Z,14.90
2022-10-18T09:01:42.413Z,14.92
2022-10-18T09:03:06.404Z,14.94
2022-10-18T09:04:53.385Z,14.96
2022-10-18T09:06:00.391Z,14.97
2022-10-18T09:07:28.235Z,14.97
2022-10-18T09:08:55.241Z,14.99
2022-10-18T09:10:22.710Z,14.99
2022-10-18T09:11:51.082Z,15.01
2022-10-18T09:13:14.942Z,15.02
2022-10-18T09:14:32.261Z,15.03
2022-10-18T09:15:54.752Z,15.04
2022-10-18T09:17:02.852Z,15.07
2022-10-18T09:18:11.148Z,15.08
2022-10-18T09:19:45.233Z,15.08
2022-10-18T09:20:57.735Z,15.10
2022-10-18T09:22:13.489Z,15.10
2022-10-18T09:23:20.991Z,15.11
2022-10-18T09:24:28.199Z,15.12
2022-10-18T09:25:39.649Z,15.15
2022-10-18T09:26:48.080Z,15.15
2022-10-18T09:28:04.794Z,15.15
2022-10-18T09:29:45.268Z,15.18
2022-10-18T09:31:04.172Z,15.18
2022-10-18T09:32:08.999Z,15.21
2022-10-18T09:33:17.170Z,15.23
2022-10-18T09:34:26.356Z,15.26
2022-10-18T09:35:59.347Z,15.27
2022-10-18T09:37:02.439Z,15.29
2022-10-18T09:38:09.752Z,15.28
2022-10-18T09:39:21.589Z,15.30
2022-10-18T09:40:28.225Z,15.31
2022-10-18T09:41:48.817Z,15.34
2022-10-18T09:42:56.807Z,15.35
2022-10-18T09:44:09.690Z,15.35
2022-10-18T09:45:35.311Z,15.37
2022-10-18T09:46:43.559Z,15.40
2022-10-18T09:47:54.107Z,15.42
2022-10-18T09:49:02.532Z,15.44
2022-10-18T09:50:29.713Z,15.45
2022-10-18T09:51:38.850Z,15.46
2022-10-18T09:52:58.852Z,15.47
2022-10-18T09:54:13.468Z,15.50
2022-10-18T09:55:22.403Z,15.50
2022-10-18T09:56:30.233Z,15.51
2022-10-18T09:57:41.230Z,15.53
2022-10-18T09:58:46.563Z,15.55
2022-10-18T09:59:51.810Z,15.57
2022-10-18T10:00:55.595Z,15.58
2022-10-18T10:01:57.854Z,15.60
2022-10-18T10:03:02.243Z,15.62
2022-10-18T10:04:04.622Z,15.64
2022-10-18T10:05:12.708Z,15.65
2022-10-18T10:06:18.195Z,15.68
2022-10-18T10:07:34.972Z,15.69
2022-10-18T10:08:42.099Z,15.72
2022-10-18T10:09:46.307Z,15.75
2022-10-18T10:10:48.675Z,15.78
2022-10-18T10:11:52.406Z,15.81
2022-10-18T10:13:17.889Z,15.85
2022-10-18T10:14:30.704Z,15.88
2022-10-18T10:15:37.149Z,15.92
2022-10-18T10:16:52.020Z,15.96
2022-10-18T10:18:01.264Z,15.98
2022-10-18T10:19:03.494Z,16.01
2022-10-18T10:20:19.017Z,16.05
2022-10-18T10:21:24.313Z,16.07
2022-10-18T10:22:32.263Z,16.09
2022-10-18T10:23:34.622Z,16.12
2022-10-18T10:24:51.580Z,16.16
2022-10-18T10:25:59.967Z,16.17
2022-10-18T10:27:06.912Z,16.19
2022-10-18T10:28:22.876Z,16.20
2022-10-18T10:29:46.245Z,16.21
2022-10-18T10:30:48.996Z,16.24
2022-10-18T10:32:03.214Z,16.25
2022-10-18T10:33:07.071Z,16.23
2022-10-18T10:34:15.153Z,16.24
2022-10-18T10:35:53.377Z,16.24
2022-10-18T10:36:56.108Z,16.23
2022-10-18T10:37:58.443Z,16.23
2022-10-18T10:39:19.009Z,16.22
2022-10-18T10:40:26.518Z,16.23
2022-10-18T10:42:38.743Z,16.20
2022-10-18T10:43:45.163Z,16.20
2022-10-18T10:44:55.455Z,16.19
2022-10-18T10:46:05.948Z,16.17
2022-10-18T10:47:08.679Z,16.17
2022-10-18T10:48:20.015Z,16.16
2022-10-18T10:49:42.516Z,16.16
2022-10-18T10:50:58.943Z,16.14
2022-10-18T10:52:08.855Z,16.14
2022-10-18T10:53:30.819Z,16.12
2022-10-18T10:54:36.997Z,16.12
2022-10-18T10:55:39.227Z,16.12
2022-10-18T10:56:56.724Z,16.11
2022-10-18T10:57:59.290Z,16.10
2022-10-18T10:59:10.145Z,16.10
2022-10-18T11:00:37.609Z,16.08
2022-10-18T11:01:40.058Z,16.08
2022-10-18T11:02:51.128Z,16.06
2022-10-18T11:04:24.106Z,16.07
2022-10-18T11:05:29.515Z,16.06
2022-10-18T11:06:44.993Z,16.05
2022-10-18T11:07:48.120Z,16.06
2022-10-18T11:08:52.944Z,16.05
2022-10-18T11:10:02.471Z,16.05
2022-10-18T11:11:27.893Z,16.04
2022-10-18T11:12:46.440Z,16.04
2022-10-18T11:14:07.364Z,16.04
2022-10-18T11:15:26.132Z,16.04
2022-10-18T11:16:51.572Z,16.04
2022-10-18T11:18:17.088Z,16.03
2022-10-18T11:19:39.217Z,16.02
2022-10-18T11:20:59.734Z,16.03
2022-10-18T11:22:06.641Z,16.02
2022-10-18T11:23:16.880Z,16.02
2022-10-18T11:24:20.118Z,16.02
2022-10-18T11:25:27.937Z,16.03
2022-10-18T11:26:54.932Z,16.02
2022-10-18T11:28:32.945Z,16.02
2022-10-18T11:30:07.482Z,16.04
2022-10-18T11:31:32.684Z,16.04
2022-10-18T11:32:49.773Z,16.05
2022-10-18T11:34:19.746Z,16.05
2022-10-18T11:35:32.137Z,16.06
2022-10-18T11:36:54.686Z,16.05
2022-10-18T11:38:13.194Z,16.08
2022-10-18T11:39:19.924Z,16.07
2022-10-18T11:40:31.226Z,16.07
2022-10-18T11:41:51.856Z,16.08
2022-10-18T11:43:07.703Z,16.09
2022-10-18T11:44:28.500Z,16.09
2022-10-18T11:46:08.275Z,16.10
2022-10-18T11:47:35.802Z,16.11
2022-10-18T11:48:58.421Z,16.13
2022-10-18T11:50:30.937Z,16.13
2022-10-18T11:52:06.838Z,16.14
2022-10-18T11:53:38.487Z,16.13
2022-10-18T11:54:55.519Z,16.14
2022-10-18T11:56:30.652Z,16.14
2022-10-18T11:57:39.078Z,16.16
2022-10-18T11:59:11.302Z,16.16
2022-10-18T12:00:44.882Z,16.16
2022-10-18T12:02:03.918Z,16.17
2022-10-18T12:03:27.264Z,16.17
2022-10-18T12:04:53.097Z,16.17
2022-10-18T12:06:15.565Z,16.18
2022-10-18T12:07:26.795Z,16.19
2022-10-18T12:08:39.997Z,16.19
2022-10-18T12:09:45.581Z,16.19
2022-10-18T12:11:04.547Z,16.18
2022-10-18T12:12:14.650Z,16.19
2022-10-18T12:13:23.129Z,16.19
2022-10-18T12:14:32.913Z,16.20
2022-10-18T12:15:39.557Z,16.19
2022-10-18T12:16:51.536Z,16.21
2022-10-18T12:17:59.983Z,16.21
2022-10-18T12:19:07.168Z,16.21
2022-10-18T12:20:24.401Z,16.21
2022-10-18T12:21:30.883Z,16.22
2022-10-18T12:22:43.607Z,16.22
2022-10-18T12:23:53.055Z,16.22
2022-10-18T12:24:55.407Z,16.22
2022-10-18T12:26:03.835Z,16.22
2022-10-18T12:27:06.420Z,16.23
2022-10-18T12:28:32.895Z,16.23
2022-10-18T12:29:50.278Z,16.25
2022-10-18T12:31:24.847Z,16.24
2022-10-18T12:32:34.716Z,16.24
2022-10-18T12:33:46.028Z,16.25
2022-10-18T12:35:06.041Z,16.25
2022-10-18T12:36:11.027Z,16.25
2022-10-18T12:37:31.166Z,16.25
2022-10-18T12:38:36.953Z,16.25
2022-10-18T12:40:05.362Z,16.26
2022-10-18T12:41:20.995Z,16.25
2022-10-18T12:42:27.255Z,16.27
2022-10-18T12:43:36.600Z,16.27
2022-10-18T12:44:39.029Z,16.27
2022-10-18T12:46:00.341Z,16.28
2022-10-18T12:47:05.739Z,16.27
2022-10-18T12:48:25.652Z,16.26
2022-10-18T12:49:34.382Z,16.27
2022-10-18T12:50:42.198Z,16.26
2022-10-18T12:51:58.185Z,16.27
2022-10-18T12:53:20.461Z,16.27
2022-10-18T12:54:29.251Z,16.26
2022-10-18T12:57:20.433Z,16.25
2022-10-18T12:58:28.639Z,16.26
2022-10-18T12:59:31.398Z,16.26
2022-10-18T13:00:33.513Z,16.27
2022-10-18T13:01:51.005Z,16.25
2022-10-18T13:03:17.375Z,16.25
2022-10-18T13:04:28.603Z,16.24
2022-10-18T13:05:54.561Z,16.25
2022-10-18T13:07:08.002Z,16.25
2022-10-18T13:08:28.677Z,16.25
2022-10-18T13:09:39.329Z,16.25
2022-10-18T13:10:41.812Z,16.24
2022-10-18T13:11:43.992Z,16.24
2022-10-18T13:13:39.568Z,16.22
2022-10-18T13:15:13.459Z,16.25
2022-10-18T13:16:47.182Z,16.25
2022-10-18T13:18:05.136Z,16.24
2022-10-18T13:19:26.248Z,16.23
2022-10-18T13:21:02.145Z,16.22
2022-10-18T13:22:45.866Z,16.22
2022-10-18T13:24:13.876Z,16.22
2022-10-18T13:25:26.308Z,16.23
2022-10-18T13:26:43.596Z,16.23
2022-10-18T13:28:01.287Z,16.22
2022-10-18T13:29:49.172Z,16.22
2022-10-18T13:30:55.575Z,16.20
2022-10-18T13:32:02.160Z,16.21
2022-10-18T13:33:23.156Z,16.20
2022-10-18T13:34:33.042Z,16.19
2022-10-18T13:35:55.301Z,16.19
2022-10-18T13:37:09.761Z,16.19
2022-10-18T13:38:32.717Z,16.19
2022-10-18T13:39:38.698Z,16.20
2022-10-18T13:40:40.996Z,16.17
2022-10-18T13:41:45.762Z,16.18
2022-10-18T13:42:50.937Z,16.17
2022-10-18T13:43:53.274Z,16.17
2022-10-18T13:45:33.812Z,16.18
2022-10-18T13:46:37.268Z,16.17
2022-10-18T13:47:39.541Z,16.17
2022-10-18T13:48:46.952Z,16.18
2022-10-18T13:50:00.616Z,16.18
2022-10-18T13:51:26.861Z,16.16
2022-10-18T13:52:41.447Z,16.17
2022-10-18T13:53:55.561Z,16.17
2022-10-18T13:55:26.047Z,16.17
2022-10-18T13:56:40.426Z,16.18
2022-10-18T13:58:10.896Z,16.18
2022-10-18T13:59:27.415Z,16.19
2022-10-18T14:00:54.226Z,16.18
2022-10-18T14:02:22.416Z,16.18
2022-10-18T14:03:56.981Z,16.19
2022-10-18T14:05:36.316Z,16.18
2022-10-18T14:06:43.964Z,16.18
2022-10-18T14:07:49.041Z,16.19
2022-10-18T14:09:09.441Z,16.18
2022-10-18T14:11:01.494Z,16.19
2022-10-18T14:12:26.966Z,16.19
2022-10-18T14:13:38.915Z,16.20
2022-10-18T14:14:46.257Z,16.20
2022-10-18T14:15:52.900Z,16.20
2022-10-18T14:17:40.934Z,16.21
2022-10-18T14:18:48.824Z,16.21
2022-10-18T14:19:58.508Z,16.23
2022-10-18T14:21:16.912Z,16.23
2022-10-18T14:22:32.240Z,16.25
2022-10-18T14:23:37.495Z,16.25
2022-10-18T14:24:45.869Z,16.26
2022-10-18T14:25:48.307Z,16.26
2022-10-18T14:27:16.151Z,16.28
2022-10-18T14:28:27.448Z,16.29
2022-10-18T14:29:33.955Z,16.28
2022-10-18T14:30:37.237Z,16.30
2022-10-18T14:31:39.647Z,16.30
2022-10-18T14:32:50.697Z,16.30
2022-10-18T14:33:58.014Z,16.31
2022-10-18T14:35:30.702Z,16.31
2022-10-18T14:36:26.347Z,16.30
2022-10-18T14:37:36.787Z,16.31
2022-10-18T14:38:58.803Z,16.32
2022-10-18T14:40:02.343Z,16.31
2022-10-18T14:41:16.148Z,16.31
2022-10-18T14:42:21.429Z,16.31
2022-10-18T14:43:23.618Z,16.30
2022-10-18T14:44:32.194Z,16.30
2022-10-18T14:45:34.563Z,16.30
2022-10-18T14:46:42.984Z,16.30
2022-10-18T14:47:46.415Z,16.29
2022-10-18T14:49:10.976Z,16.29